createdAt,value
2023-03-16T00:01:09.548Z,12.02
2023-03-16T00:03:19.579Z,13.38
2023-03-16T00:05:26.037Z,12.60
2023-03-16T00:07:34.430Z,12.13
2023-03-16T00:09:41.366Z,12.65
2023-03-16T00:11:46.582Z,12.23
2023-03-16T00:13:51.496Z,11.98
2023-03-16T00:15:57.689Z,12.48
2023-03-16T00:18:02.489Z,12.35
2023-03-16T00:20:08.886Z,10.95
2023-03-16T00:22:14.817Z,11.43
2023-03-16T00:24:25.136Z,11.32
2023-03-16T00:26:29.899Z,12.40
2023-03-16T00:28:36.300Z,10.75
2023-03-16T00:30:41.068Z,11.05
2023-03-16T00:32:46.026Z,10.32
2023-03-16T00:34:51.626Z,9.13
2023-03-16T00:36:56.533Z,10.75
2023-03-16T00:39:02.483Z,11.20
2023-03-16T00:41:10.972Z,11.52
2023-03-16T00:43:18.952Z,12.20
2023-03-16T00:45:23.717Z,12.13
2023-03-16T00:47:30.440Z,11.50
2023-03-16T00:49:35.366Z,10.68
2023-03-16T00:51:40.224Z,12.07
2023-03-16T00:53:46.706Z,11.60
2023-03-16T00:55:53.525Z,10.68
2023-03-16T00:58:05.095Z,10.07
2023-03-16T01:00:16.899Z,10.40
2023-03-16T01:02:23.787Z,12.18
2023-03-16T01:04:29.462Z,11.57
2023-03-16T01:06:34.636Z,11.65
2023-03-16T01:08:43.028Z,12.98
2023-03-16T01:10:48.049Z,13.50
2023-03-16T01:12:56.197Z,12.50
2023-03-16T01:15:03.614Z,11.40
2023-03-16T01:17:10.984Z,11.35
2023-03-16T01:19:18.846Z,12.23
2023-03-16T01:21:24.494Z,12.07
2023-03-16T01:23:30.324Z,11.55
2023-03-16T01:25:35.445Z,10.77
2023-03-16T01:27:40.225Z,11.10
2023-03-16T01:29:46.972Z,10.73
2023-03-16T01:31:54.664Z,12.20
2023-03-16T01:33:59.862Z,12.98
2023-03-16T01:36:11.177Z,12.93
2023-03-16T01:38:26.474Z,11.18
2023-03-16T01:40:31.494Z,11.45
2023-03-16T01:44:57.673Z,11.32
2023-03-16T01:47:12.213Z,10.25
2023-03-16T01:49:20.734Z,10.95
2023-03-16T01:51:28.614Z,10.27
2023-03-16T01:53:33.680Z,10.30
2023-03-16T01:55:39.065Z,10.32
2023-03-16T01:57:47.807Z,9.88
2023-03-16T01:59:56.505Z,9.73
2023-03-16T02:02:01.861Z,10.05
2023-03-16T02:04:39.696Z,9.90
2023-03-16T02:06:45.472Z,10.55
2023-03-16T02:08:55.374Z,9.80
2023-03-16T02:11:00.969Z,10.02
2023-03-16T02:13:18.387Z,10.50
2023-03-16T02:15:23.353Z,10.90
2023-03-16T02:17:32.071Z,10.90
2023-03-16T02:19:50.267Z,9.95
2023-03-16T02:22:02.260Z,9.65
2023-03-16T02:24:08.312Z,11.88
2023-03-16T02:26:23.084Z,11.20
2023-03-16T02:28:34.981Z,10.63
2023-03-16T02:30:42.548Z,11.90
2023-03-16T02:32:51.682Z,12.07
2023-03-16T02:34:57.797Z,11.35
2023-03-16T02:37:04.008Z,11.68
2023-03-16T02:39:09.448Z,11.43
2023-03-16T02:41:23.901Z,11.38
2023-03-16T02:43:37.863Z,12.82
2023-03-16T02:46:03.523Z,12.45
2023-03-16T02:48:15.696Z,12.50
2023-03-16T02:50:21.035Z,11.70
2023-03-16T02:54:30.636Z,12.35
2023-03-16T02:56:35.848Z,11.35
2023-03-16T02:58:40.941Z,11.85
2023-03-16T03:00:50.649Z,11.10
2023-03-16T03:02:58.628Z,10.35
2023-03-16T03:05:03.503Z,11.90
2023-03-16T03:07:08.385Z,9.95
2023-03-16T03:09:29.545Z,12.25
2023-03-16T03:11:34.856Z,11.20
2023-03-16T03:15:50.379Z,10.80
2023-03-16T03:17:59.305Z,10.40
2023-03-16T03:20:15.657Z,10.63
2023-03-16T03:22:20.673Z,10.50
2023-03-16T03:24:28.183Z,10.80
2023-03-16T03:26:32.951Z,11.35
2023-03-16T03:28:38.969Z,10.55
2023-03-16T03:30:44.484Z,10.52
2023-03-16T03:32:49.580Z,11.70
2023-03-16T03:34:59.156Z,11.25
2023-03-16T03:37:04.476Z,10.55
2023-03-16T03:39:10.087Z,11.73
2023-03-16T03:41:15.332Z,12.77
2023-03-16T03:43:21.146Z,11.93
2023-03-16T03:45:27.263Z,11.98
2023-03-16T03:47:32.547Z,12.30
2023-03-16T03:49:38.400Z,11.50
2023-03-16T03:51:47.077Z,11.05
2023-03-16T03:53:56.550Z,11.30
2023-03-16T03:56:14.992Z,11.07
2023-03-16T03:58:19.988Z,11.05
2023-03-16T04:00:25.194Z,10.65
2023-03-16T04:02:30.534Z,10.00
2023-03-16T04:04:36.032Z,11.23
2023-03-16T04:06:41.756Z,10.27
2023-03-16T04:08:49.392Z,10.48
2023-03-16T04:10:57.346Z,11.35
2023-03-16T04:13:03.120Z,10.98
2023-03-16T04:15:12.825Z,9.02
2023-03-16T04:17:28.125Z,10.75
2023-03-16T04:19:36.371Z,10.27
2023-03-16T04:21:43.143Z,9.80
2023-03-16T04:23:54.381Z,9.98
2023-03-16T04:26:03.972Z,8.18
2023-03-16T04:28:09.057Z,9.60
2023-03-16T04:30:17.726Z,10.15
2023-03-16T04:32:27.040Z,10.25
2023-03-16T04:34:32.611Z,9.40
2023-03-16T04:36:41.886Z,9.65
2023-03-16T04:38:49.893Z,9.85
2023-03-16T04:40:54.759Z,10.77
2023-03-16T04:43:02.839Z,10.27
2023-03-16T04:45:10.349Z,9.43
2023-03-16T04:47:16.480Z,10.45
2023-03-16T04:49:22.442Z,9.20
2023-03-16T04:51:27.897Z,8.90
2023-03-16T04:53:45.789Z,8.38
2023-03-16T04:56:00.881Z,9.35
2023-03-16T04:58:05.995Z,8.85
2023-03-16T05:00:19.296Z,8.40
2023-03-16T05:02:32.255Z,8.80
2023-03-16T05:04:39.101Z,8.20
2023-03-16T05:06:48.115Z,8.65
2023-03-16T05:08:54.419Z,9.38
2023-03-16T05:11:02.812Z,10.38
2023-03-16T05:13:11.758Z,9.05
2023-03-16T05:17:23.732Z,8.88
2023-03-16T05:21:35.643Z,9.35
2023-03-16T05:23:42.878Z,8.70
2023-03-16T05:25:49.188Z,9.50
2023-03-16T05:28:00.474Z,9.27
2023-03-16T05:30:21.787Z,9.75
2023-03-16T05:32:27.127Z,9.80
2023-03-16T05:34:31.980Z,9.57
2023-03-16T05:36:37.570Z,10.07
2023-03-16T05:38:47.426Z,10.43
2023-03-16T05:41:05.942Z,9.43
2023-03-16T05:43:26.412Z,10.13
2023-03-16T05:45:33.819Z,10.70
2023-03-16T05:47:47.351Z,10.48
2023-03-16T05:49:52.674Z,9.60
2023-03-16T05:52:07.693Z,9.80
2023-03-16T05:54:14.002Z,9.75
2023-03-16T05:56:24.295Z,9.98
2023-03-16T05:58:33.819Z,9.90
2023-03-16T06:00:39.502Z,9.98
2023-03-16T06:02:56.458Z,9.88
2023-03-16T06:05:06.020Z,9.82
2023-03-16T06:07:11.251Z,10.70
2023-03-16T06:09:16.363Z,9.55
2023-03-16T06:11:21.214Z,9.45
2023-03-16T06:13:26.173Z,9.05
2023-03-16T06:15:33.726Z,10.35
2023-03-16T06:17:42.056Z,9.60
2023-03-16T06:19:47.078Z,9.30
2023-03-16T06:21:51.944Z,9.02
2023-03-16T06:23:56.855Z,10.10
2023-03-16T06:26:02.621Z,9.70
2023-03-16T06:28:10.524Z,10.45
2023-03-16T06:30:17.137Z,10.55
2023-03-16T06:32:24.906Z,10.52
2023-03-16T06:34:30.065Z,11.65
2023-03-16T06:36:35.210Z,10.57
2023-03-16T06:38:41.678Z,10.43
2023-03-16T06:41:06.799Z,10.93
2023-03-16T06:43:13.007Z,10.60
2023-03-16T06:45:18.293Z,11.15
2023-03-16T06:47:25.754Z,10.32
2023-03-16T06:49:30.656Z,10.90
2023-03-16T06:51:35.761Z,10.05
2023-03-16T06:53:41.481Z,10.85
2023-03-16T06:55:46.413Z,10.57
2023-03-16T06:57:51.904Z,10.73
2023-03-16T06:59:56.884Z,10.13
2023-03-16T07:02:02.011Z,11.40
2023-03-16T07:04:09.546Z,11.15
2023-03-16T07:06:14.612Z,9.32
2023-03-16T07:08:20.446Z,10.23
2023-03-16T07:10:25.331Z,10.85
2023-03-16T07:12:30.250Z,9.57
2023-03-16T07:14:35.047Z,10.40
2023-03-16T07:16:40.126Z,9.95
2023-03-16T07:18:48.396Z,9.68
2023-03-16T07:20:58.453Z,9.45
2023-03-16T07:23:04.799Z,10.00
2023-03-16T07:25:11.705Z,10.50
2023-03-16T07:27:20.924Z,10.23
2023-03-16T07:29:26.399Z,9.23
2023-03-16T07:31:32.585Z,9.52
2023-03-16T07:33:40.149Z,10.43
2023-03-16T07:35:48.311Z,9.10
2023-03-16T07:37:55.826Z,8.80
2023-03-16T07:40:05.620Z,10.25
2023-03-16T07:42:10.926Z,9.45
2023-03-16T07:44:37.331Z,9.07
2023-03-16T07:46:42.203Z,9.27
2023-03-16T07:48:48.273Z,9.80
2023-03-16T07:50:54.295Z,9.43
2023-03-16T07:53:02.746Z,9.27
2023-03-16T07:55:08.753Z,9.05
2023-03-16T07:57:13.956Z,8.73
2023-03-16T07:59:21.565Z,8.90
2023-03-16T08:01:26.612Z,8.68
2023-03-16T08:05:37.313Z,8.52
2023-03-16T08:07:48.139Z,7.28
2023-03-16T08:10:02.812Z,7.00
2023-03-16T08:12:18.562Z,6.85
2023-03-16T08:16:48.690Z,7.10
2023-03-16T08:21:00.734Z,7.47
2023-03-16T08:23:05.668Z,6.35
2023-03-16T08:25:20.032Z,6.32
2023-03-16T08:27:37.841Z,6.38
2023-03-16T08:29:44.886Z,5.82
2023-03-16T08:31:53.706Z,6.60
2023-03-16T08:34:06.536Z,5.93
2023-03-16T08:36:18.658Z,5.75
2023-03-16T08:38:27.194Z,6.35
2023-03-16T08:40:35.136Z,5.82
2023-03-16T08:42:41.358Z,6.20
2023-03-16T08:44:48.058Z,5.88
2023-03-16T08:46:53.137Z,7.55
2023-03-16T08:48:59.193Z,5.60
2023-03-16T08:55:15.668Z,4.75
2023-03-16T08:57:23.575Z,5.85
2023-03-16T08:59:30.489Z,5.78
2023-03-16T09:01:35.594Z,4.90
2023-03-16T09:03:40.774Z,4.57
2023-03-16T09:07:50.435Z,4.70
2023-03-16T09:09:55.247Z,3.97
2023-03-16T09:12:00.042Z,5.55
2023-03-16T09:14:07.479Z,5.00
2023-03-16T09:16:14.075Z,5.07
2023-03-16T09:18:19.693Z,4.55
2023-03-16T09:20:29.443Z,4.15
2023-03-16T09:22:34.383Z,3.75
2023-03-16T09:24:39.190Z,3.85
2023-03-16T09:26:44.062Z,3.30
2023-03-16T09:28:49.355Z,2.72
2023-03-16T09:30:57.464Z,3.13
2023-03-16T09:33:02.317Z,3.03
2023-03-16T09:35:08.586Z,2.60
2023-03-16T09:37:13.581Z,2.88
2023-03-16T09:39:18.334Z,2.65
2023-03-16T09:41:44.109Z,2.80
2023-03-16T09:44:03.160Z,2.50
2023-03-16T09:46:15.739Z,2.50
2023-03-16T09:48:24.704Z,2.45
2023-03-16T09:50:47.314Z,2.15
2023-03-16T09:53:01.289Z,2.97
2023-03-16T09:55:10.790Z,2.60
2023-03-16T09:57:25.955Z,2.13
2023-03-16T09:59:30.903Z,2.30
2023-03-16T10:01:49.258Z,2.40
2023-03-16T10:04:09.912Z,2.45
2023-03-16T10:06:16.990Z,2.15
2023-03-16T10:08:26.005Z,2.50
2023-03-16T10:10:47.076Z,2.20
2023-03-16T10:12:55.836Z,2.40
2023-03-16T10:15:07.071Z,2.50
2023-03-16T10:17:18.291Z,2.00
2023-03-16T10:19:32.548Z,2.20
2023-03-16T10:21:43.248Z,2.83
2023-03-16T10:23:49.740Z,2.55
2023-03-16T10:25:56.811Z,2.70
2023-03-16T10:28:01.617Z,2.80
2023-03-16T10:30:14.689Z,2.20
2023-03-16T10:32:24.564Z,2.50
2023-03-16T10:34:29.439Z,2.15
2023-03-16T10:36:36.557Z,1.90
2023-03-16T10:38:46.972Z,2.13
2023-03-16T10:40:57.914Z,1.98
2023-03-16T10:43:09.404Z,2.10
2023-03-16T10:45:27.668Z,2.50
2023-03-16T10:47:36.541Z,2.30
2023-03-16T10:49:44.548Z,2.92
2023-03-16T10:51:49.795Z,3.05
2023-03-16T10:56:03.615Z,2.55
2023-03-16T10:58:08.380Z,2.17
2023-03-16T11:00:21.392Z,2.13
2023-03-16T11:02:28.106Z,2.35
2023-03-16T11:04:38.233Z,2.00
2023-03-16T11:06:52.131Z,1.60
2023-03-16T11:08:57.429Z,1.67
2023-03-16T11:13:17.662Z,1.83
2023-03-16T11:15:29.331Z,2.13
2023-03-16T11:17:40.167Z,1.85
2023-03-16T11:19:54.883Z,1.92
2023-03-16T11:22:04.745Z,1.98
2023-03-16T11:24:18.573Z,1.60
2023-03-16T11:26:29.111Z,1.95
2023-03-16T11:28:39.373Z,1.70
2023-03-16T11:30:49.463Z,1.88
2023-03-16T11:32:55.896Z,1.77
2023-03-16T11:35:04.681Z,2.05
2023-03-16T11:37:23.075Z,1.83
2023-03-16T11:39:37.806Z,1.85
2023-03-16T11:41:54.607Z,2.20
2023-03-16T11:44:03.510Z,2.70
2023-03-16T11:46:18.269Z,2.33
2023-03-16T11:48:36.695Z,1.83
2023-03-16T11:50:56.412Z,1.98
2023-03-16T11:53:10.246Z,1.88
2023-03-16T11:55:28.944Z,2.58
2023-03-16T11:57:46.660Z,2.13
2023-03-16T12:00:09.612Z,1.92
2023-03-16T12:02:34.153Z,2.10
2023-03-16T12:04:52.048Z,2.40
2023-03-16T12:07:11.521Z,2.00
2023-03-16T12:09:47.713Z,2.30
2023-03-16T12:11:59.890Z,1.92
2023-03-16T12:14:16.646Z,2.30
2023-03-16T12:16:27.494Z,2.83
2023-03-16T12:18:47.030Z,2.35
2023-03-16T12:20:57.044Z,2.25
2023-03-16T12:23:09.377Z,2.17
2023-03-16T12:25:22.157Z,2.33
2023-03-16T12:27:32.598Z,2.80
2023-03-16T12:29:43.862Z,1.98
2023-03-16T12:31:56.016Z,2.42
2023-03-16T12:34:19.247Z,3.00
2023-03-16T12:36:51.697Z,3.25
2023-03-16T12:39:05.520Z,3.03
2023-03-16T12:41:20.724Z,2.25
2023-03-16T12:43:42.806Z,2.35
2023-03-16T12:45:57.766Z,2.55
2023-03-16T12:48:11.722Z,2.78
2023-03-16T12:50:19.888Z,2.30
2023-03-16T12:52:24.680Z,2.53
2023-03-16T12:54:32.572Z,2.30
2023-03-16T12:56:46.275Z,2.10
2023-03-16T12:58:53.024Z,2.67
2023-03-16T13:01:00.978Z,2.50
2023-03-16T13:03:08.213Z,2.33
2023-03-16T13:05:14.964Z,2.55
2023-03-16T13:07:22.799Z,3.00
2023-03-16T13:09:32.689Z,2.40
2023-03-16T13:11:50.239Z,2.58
2023-03-16T13:14:11.041Z,2.60
2023-03-16T13:16:28.438Z,2.75
2023-03-16T13:18:40.297Z,2.80
2023-03-16T13:20:56.518Z,2.63
2023-03-16T13:23:23.272Z,2.63
2023-03-16T13:25:42.919Z,3.38
2023-03-16T13:27:50.195Z,2.58
2023-03-16T13:29:59.769Z,2.85
2023-03-16T13:32:10.674Z,2.92
2023-03-16T13:34:18.413Z,2.60
2023-03-16T13:36:24.047Z,2.88
2023-03-16T13:38:30.805Z,3.50
2023-03-16T13:40:40.104Z,3.38
2023-03-16T13:42:52.900Z,2.85
2023-03-16T13:44:59.416Z,2.22
2023-03-16T13:47:08.545Z,2.72
2023-03-16T13:49:15.472Z,2.70
2023-03-16T13:51:22.785Z,2.33
2023-03-16T13:53:31.652Z,2.30
2023-03-16T13:55:41.738Z,2.08
2023-03-16T13:57:48.485Z,2.33
2023-03-16T13:59:59.083Z,2.13
2023-03-16T14:02:04.562Z,2.70
2023-03-16T14:04:18.758Z,2.83
2023-03-16T14:06:27.077Z,2.70
2023-03-16T14:08:32.585Z,2.95
2023-03-16T14:10:41.096Z,2.50
2023-03-16T14:12:54.136Z,2.40
2023-03-16T14:14:58.974Z,2.72
2023-03-16T14:17:06.293Z,2.10
2023-03-16T14:19:19.328Z,2.20
2023-03-16T14:21:26.318Z,2.15
2023-03-16T14:23:36.579Z,2.17
2023-03-16T14:25:44.114Z,1.92
2023-03-16T14:27:48.869Z,2.22
2023-03-16T14:30:05.056Z,2.20
2023-03-16T14:32:28.596Z,2.50
2023-03-16T14:34:39.589Z,2.25
2023-03-16T14:36:44.404Z,2.10
2023-03-16T14:38:54.509Z,2.67
2023-03-16T14:41:07.979Z,2.13
2023-03-16T14:43:13.759Z,2.40
2023-03-16T14:45:20.513Z,2.15
2023-03-16T14:47:29.450Z,2.17
2023-03-16T14:49:36.584Z,2.22
2023-03-16T14:51:44.078Z,2.40
2023-03-16T14:53:48.814Z,2.10
2023-03-16T14:55:53.624Z,1.90
2023-03-16T14:58:01.097Z,2.10
2023-03-16T15:00:10.271Z,2.67
2023-03-16T15:02:20.707Z,2.10
2023-03-16T15:04:31.382Z,2.28
2023-03-16T15:06:36.740Z,1.85
2023-03-16T15:10:50.330Z,2.58
2023-03-16T15:15:18.915Z,2.20
2023-03-16T15:17:23.684Z,2.30
2023-03-16T15:19:28.462Z,2.40
2023-03-16T15:21:33.281Z,2.17
2023-03-16T15:23:38.104Z,2.90
2023-03-16T15:25:45.009Z,2.35
2023-03-16T15:27:50.511Z,2.90
2023-03-16T15:29:55.271Z,2.53
2023-03-16T15:32:02.686Z,2.63
2023-03-16T15:34:07.456Z,3.05
2023-03-16T15:36:18.237Z,3.92
2023-03-16T15:38:27.178Z,4.40
2023-03-16T15:40:32.789Z,4.22
2023-03-16T15:42:37.536Z,3.55
2023-03-16T15:44:42.343Z,4.88
2023-03-16T15:46:47.997Z,4.97
2023-03-16T15:48:55.532Z,2.70
2023-03-16T15:51:02.616Z,3.08
2023-03-16T15:53:20.494Z,2.80
2023-03-16T15:55:38.449Z,3.10
2023-03-16T15:57:43.587Z,2.60
2023-03-16T15:59:48.987Z,3.03
2023-03-16T16:01:54.075Z,2.75
2023-03-16T16:04:01.533Z,2.78
2023-03-16T16:06:06.617Z,2.92
2023-03-16T16:08:11.650Z,2.78
2023-03-16T16:10:17.153Z,2.90
2023-03-16T16:12:26.989Z,2.80
2023-03-16T16:14:32.068Z,3.47
2023-03-16T16:16:37.439Z,3.20
2023-03-16T16:18:42.486Z,3.20
2023-03-16T16:20:51.474Z,4.10
2023-03-16T16:23:03.037Z,3.58
2023-03-16T16:25:09.500Z,3.45
2023-03-16T16:27:15.104Z,3.50
2023-03-16T16:29:22.482Z,3.40
2023-03-16T16:31:28.410Z,4.00
2023-03-16T16:33:36.222Z,3.80
2023-03-16T16:35:41.689Z,3.60
2023-03-16T16:37:49.247Z,4.10
2023-03-16T16:39:57.081Z,3.80
2023-03-16T16:42:01.938Z,3.80
2023-03-16T16:44:08.476Z,4.18
2023-03-16T16:46:17.488Z,4.20
2023-03-16T16:48:36.774Z,4.78
2023-03-16T16:50:42.223Z,4.22
2023-03-16T16:52:49.984Z,4.60
2023-03-16T16:54:54.809Z,4.35
2023-03-16T16:57:02.244Z,4.55
2023-03-16T16:59:17.663Z,4.97
2023-03-16T17:01:30.191Z,4.28
2023-03-16T17:03:37.635Z,4.45
2023-03-16T17:05:42.411Z,5.18
2023-03-16T17:07:50.330Z,5.07
2023-03-16T17:09:55.534Z,5.25
2023-03-16T17:14:08.530Z,5.47
2023-03-16T17:21:57.753Z,5.03
2023-03-16T17:24:07.499Z,5.68
2023-03-16T17:29:16.849Z,5.82
2023-03-16T17:31:33.443Z,5.68
2023-03-16T17:34:05.088Z,6.18
2023-03-16T17:36:12.050Z,6.30
2023-03-16T17:38:27.121Z,6.25
2023-03-16T17:40:40.113Z,6.05
2023-03-16T17:42:57.973Z,6.10
2023-03-16T17:45:07.437Z,5.80
2023-03-16T17:50:24.663Z,6.80
2023-03-16T17:52:32.334Z,6.07
2023-03-16T17:54:37.394Z,6.40
2023-03-16T17:56:48.226Z,5.68
2023-03-16T17:59:03.396Z,6.15
2023-03-16T18:01:08.864Z,5.65
2023-03-16T18:03:17.517Z,5.68
2023-03-16T18:05:27.417Z,6.25
2023-03-16T18:07:32.957Z,6.68
2023-03-16T18:09:46.131Z,6.00
2023-03-16T18:11:54.406Z,7.15
2023-03-16T18:13:59.445Z,6.95
2023-03-16T18:16:34.125Z,7.30
2023-03-16T18:18:41.721Z,7.55
2023-03-16T18:20:51.690Z,6.55
2023-03-16T18:22:56.760Z,6.95
2023-03-16T18:25:02.260Z,6.55
2023-03-16T18:27:42.506Z,6.40
2023-03-16T18:30:04.790Z,6.30
2023-03-16T18:32:21.754Z,6.68
2023-03-16T18:34:39.062Z,7.03
2023-03-16T18:36:45.837Z,7.30
2023-03-16T18:39:03.721Z,7.28
2023-03-16T18:43:57.277Z,7.65
2023-03-16T18:46:27.721Z,7.45
2023-03-16T18:48:47.735Z,7.13
2023-03-16T18:51:02.142Z,7.15
2023-03-16T18:53:08.329Z,6.32
2023-03-16T18:55:18.844Z,6.95
2023-03-16T18:57:26.460Z,6.85
2023-03-16T18:59:33.773Z,7.25
2023-03-16T19:01:44.090Z,7.15
2023-03-16T19:03:48.933Z,7.80
2023-03-16T19:05:54.416Z,7.55
2023-03-16T19:07:59.285Z,7.13
2023-03-16T19:10:06.321Z,7.40
2023-03-16T19:12:17.810Z,6.90
2023-03-16T19:14:25.181Z,6.50
2023-03-16T19:16:30.093Z,5.47
2023-03-16T19:18:42.126Z,8.23
2023-03-16T19:20:50.315Z,6.75
2023-03-16T19:23:02.346Z,6.50
2023-03-16T19:25:08.163Z,6.50
2023-03-16T19:27:22.428Z,6.60
2023-03-16T19:29:33.687Z,6.90
2023-03-16T19:31:38.599Z,6.78
2023-03-16T19:33:48.048Z,6.47
2023-03-16T19:35:54.048Z,5.38
2023-03-16T19:37:59.174Z,6.25
2023-03-16T19:40:05.344Z,6.10
2023-03-16T19:42:22.209Z,5.70
2023-03-16T19:44:30.194Z,7.18
2023-03-16T19:46:35.032Z,6.40
2023-03-16T19:48:40.695Z,6.22
2023-03-16T19:50:49.214Z,6.18
2023-03-16T19:52:54.496Z,7.72
2023-03-16T19:55:00.590Z,6.68
2023-03-16T19:57:10.274Z,6.07
2023-03-16T19:59:15.549Z,7.05
2023-03-16T20:01:23.488Z,7.03
2023-03-16T20:03:28.575Z,7.15
2023-03-16T20:05:33.843Z,6.80
2023-03-16T20:09:46.687Z,6.57
2023-03-16T20:11:52.370Z,6.97
2023-03-16T20:13:58.337Z,7.88
2023-03-16T20:16:03.440Z,7.40
2023-03-16T20:18:14.553Z,6.75
2023-03-16T20:20:27.636Z,6.95
2023-03-16T20:22:32.675Z,8.25
2023-03-16T20:24:40.082Z,6.90
2023-03-16T20:26:45.780Z,6.22
2023-03-16T20:28:51.212Z,6.45
2023-03-16T20:30:56.166Z,6.47
2023-03-16T20:33:01.286Z,6.53
2023-03-16T20:37:24.726Z,6.53
2023-03-16T20:39:29.669Z,6.05
2023-03-16T20:41:38.738Z,5.53
2023-03-16T20:43:44.071Z,6.65
2023-03-16T20:47:54.588Z,6.70
2023-03-16T20:50:00.308Z,6.72
2023-03-16T20:52:05.948Z,6.28
2023-03-16T20:54:11.083Z,6.55
2023-03-16T20:58:29.078Z,6.22
2023-03-16T21:00:36.523Z,5.82
2023-03-16T21:02:41.963Z,5.13
2023-03-16T21:04:46.776Z,6.03
2023-03-16T21:06:51.741Z,6.20
2023-03-16T21:08:58.729Z,5.38
2023-03-16T21:11:03.585Z,5.35
2023-03-16T21:13:08.722Z,5.57
2023-03-16T21:17:30.892Z,5.90
2023-03-16T21:19:39.513Z,5.07
2023-03-16T21:21:44.586Z,5.32
2023-03-16T21:23:49.964Z,5.32
2023-03-16T21:25:56.948Z,5.15
2023-03-16T21:28:05.204Z,6.03
2023-03-16T21:30:24.678Z,5.35
2023-03-16T21:32:32.464Z,5.18
2023-03-16T21:34:38.988Z,5.07
2023-03-16T21:36:44.556Z,4.95
2023-03-16T21:38:50.180Z,5.45
2023-03-16T21:40:55.274Z,4.13
2023-03-16T21:43:00.135Z,4.22
2023-03-16T21:45:05.155Z,3.92
2023-03-16T21:47:24.232Z,4.75
2023-03-16T21:49:32.948Z,4.05
2023-03-16T21:51:38.053Z,4.93
2023-03-16T21:53:43.367Z,5.25
2023-03-16T21:55:48.158Z,4.35
2023-03-16T21:57:53.193Z,4.03
2023-03-16T21:59:58.064Z,4.07
2023-03-16T22:02:02.961Z,4.03
2023-03-16T22:04:10.454Z,4.05
2023-03-16T22:06:17.906Z,3.65
2023-03-16T22:08:25.159Z,4.05
2023-03-16T22:10:31.620Z,4.05
2023-03-16T22:12:36.482Z,3.95
2023-03-16T22:14:42.130Z,3.70
2023-03-16T22:16:46.995Z,3.97
2023-03-16T22:18:53.457Z,3.65
2023-03-16T22:21:00.283Z,3.75
2023-03-16T22:23:08.897Z,3.97
2023-03-16T22:25:17.131Z,3.90
2023-03-16T22:27:26.243Z,4.30
2023-03-16T22:29:33.856Z,3.88
2023-03-16T22:31:40.710Z,3.92
2023-03-16T22:33:47.817Z,3.92
2023-03-16T22:35:53.834Z,3.40
2023-03-16T22:38:00.425Z,3.83
2023-03-16T22:40:19.664Z,4.20
2023-03-16T22:42:32.338Z,4.22
2023-03-16T22:44:37.243Z,4.15
2023-03-16T22:46:42.013Z,3.97
2023-03-16T22:48:46.778Z,3.50
2023-03-16T22:50:52.827Z,4.20
2023-03-16T22:53:00.592Z,3.67
2023-03-16T22:55:08.375Z,3.70
2023-03-16T22:57:19.554Z,3.95
2023-03-16T22:59:27.964Z,4.05
2023-03-16T23:01:36.506Z,3.60
2023-03-16T23:03:41.349Z,3.55
2023-03-16T23:05:46.208Z,3.97
2023-03-16T23:07:51.997Z,3.45
2023-03-16T23:09:56.948Z,3.22
2023-03-16T23:12:03.316Z,4.60
2023-03-16T23:14:15.473Z,4.00
2023-03-16T23:16:25.691Z,2.92
2023-03-16T23:18:30.496Z,3.60
2023-03-16T23:20:38.462Z,3.25
2023-03-16T23:22:44.697Z,3.55
2023-03-16T23:24:49.562Z,3.28
2023-03-16T23:26:55.845Z,3.70
2023-03-16T23:29:01.082Z,3.35
2023-03-16T23:33:15.104Z,3.10
2023-03-16T23:35:22.651Z,3.10
2023-03-16T23:37:27.502Z,2.92
2023-03-16T23:39:32.608Z,3.70
2023-03-16T23:41:38.480Z,3.15
2023-03-16T23:43:45.796Z,2.88
2023-03-16T23:45:51.349Z,3.03
2023-03-16T23:48:00.168Z,3.03
2023-03-16T23:50:09.753Z,3.08
2023-03-16T23:52:15.104Z,2.90
2023-03-16T23:56:26.312Z,2.97
